Time;durP1;ratioP1;P1;durP2;ratioP2;P2;SDS_P1;SDS_P2;PMS_P1;PMS_P2;Temp;Humidity;BMP_temperature;BMP_pressure;BME280_temperature;BME280_humidity;BME280_pressure;Samples;Min_cycle;Max_cycle;Signal;HPM_P1;HPM_P2
2022/04/03 00:01:51;;;;;;;14.82;6.47;;;;;;;3.73;72.82;99547.50;18370371;32;20104;-63
2022/04/03 00:11:56;;;;;;;19.60;10.05;;;;;;;3.55;73.68;99555.03;18370110;32;20370;-62
2022/04/03 00:22:01;;;;;;;16.52;8.65;;;;;;;3.63;73.62;99563.72;18369827;32;20096;-63
2022/04/03 00:32:06;;;;;;;16.62;7.18;;;;;;;3.65;73.11;99582.69;18370479;32;20093;-62
2022/04/03 00:42:10;;;;;;;14.48;6.90;;;;;;;3.60;72.96;99585.19;18370618;32;20125;-63
2022/04/03 00:52:14;;;;;;;10.07;5.70;;;;;;;3.40;73.83;99591.81;18369138;32;20537;-63
2022/04/03 01:02:18;;;;;;;13.18;6.05;;;;;;;3.17;74.27;99593.22;18369111;32;20115;-63
2022/04/03 01:12:22;;;;;;;14.57;7.90;;;;;;;3.36;73.88;99605.50;18368680;32;20384;-63
2022/04/03 01:22:46;;;;;;;12.32;5.68;;;;;;;3.28;74.26;99614.03;18369064;32;20122;-63
2022/04/03 01:32:51;;;;;;;13.02;5.43;;;;;;;3.34;74.01;99626.13;18367998;32;20509;-63
2022/04/03 01:42:54;;;;;;;11.82;5.37;;;;;;;3.41;73.97;99627.09;18367488;32;20147;-63
2022/04/03 01:52:58;;;;;;;9.63;4.57;;;;;;;3.27;74.38;99632.94;18367354;32;20093;-63
2022/04/03 02:03:02;;;;;;;9.85;5.12;;;;;;;3.28;74.32;99650.13;18366874;32;20098;-63
2022/04/03 02:13:06;;;;;;;9.38;4.55;;;;;;;3.22;74.45;99660.34;18366156;32;20108;-62
2022/04/03 02:23:10;;;;;;;12.25;5.05;;;;;;;3.09;74.70;99656.69;18366780;32;20089;-62
2022/04/03 02:33:15;;;;;;;9.32;4.28;;;;;;;3.20;74.65;99662.03;18369255;32;20134;-63
2022/04/03 02:43:19;;;;;;;10.60;3.87;;;;;;;3.14;74.77;99669.66;18373041;32;20102;-62
2022/04/03 02:53:25;;;;;;;6.22;3.08;;;;;;;3.19;74.70;99686.94;18372560;32;20101;-62
2022/04/03 03:03:28;;;;;;;7.55;2.90;;;;;;;3.23;74.26;99694.75;18373738;32;20438;-63
2022/04/03 03:13:33;;;;;;;11.50;4.62;;;;;;;3.27;74.41;99707.72;18371914;32;20354;-63
2022/04/03 03:23:36;;;;;;;4.78;2.78;;;;;;;3.17;74.65;99718.72;18371217;32;20435;-62
2022/04/03 03:33:41;;;;;;;5.87;2.78;;;;;;;2.94;75.39;99731.19;18370083;32;20184;-63
2022/04/03 03:43:44;;;;;;;6.80;2.87;;;;;;;3.07;75.07;99738.34;18367604;32;20144;-63
2022/04/03 03:53:49;;;;;;;5.78;2.90;;;;;;;3.26;74.55;99751.56;18367409;32;20107;-62
2022/04/03 04:03:52;;;;;;;7.20;2.80;;;;;;;3.22;74.48;99758.38;18366649;32;20458;-62
2022/04/03 04:13:56;;;;;;;5.03;2.55;;;;;;;3.22;74.44;99771.25;18366527;32;20111;-63
2022/04/03 04:23:59;;;;;;;6.80;2.80;;;;;;;3.14;74.88;99791.78;18365974;32;20089;-62
2022/04/03 04:34:04;;;;;;;6.53;3.53;;;;;;;3.23;74.47;99792.78;18361666;32;139110;-63
2022/04/03 04:44:07;;;;;;;6.15;3.35;;;;;;;3.09;74.88;99814.00;18369627;32;20105;-62
2022/04/03 04:54:12;;;;;;;5.65;2.87;;;;;;;3.52;73.81;99831.97;18369313;32;20446;-63
2022/04/03 05:04:15;;;;;;;2.78;2.20;;;;;;;3.41;74.47;99836.09;18368526;32;20097;-63
2022/04/03 05:14:20;;;;;;;6.90;3.03;;;;;;;3.27;74.97;99849.63;18367634;32;20093;-63
2022/04/03 05:24:23;;;;;;;7.25;3.58;;;;;;;3.56;74.28;99858.72;18365170;32;20460;-62
2022/04/03 05:34:28;;;;;;;14.38;6.85;;;;;;;3.74;73.59;99877.09;18365772;32;20073;-63
2022/04/03 05:44:32;;;;;;;9.48;3.97;;;;;;;3.63;73.64;99883.81;18367771;32;20138;-62
2022/04/03 05:54:36;;;;;;;6.80;3.78;;;;;;;3.72;73.81;99901.16;18365400;32;20473;-62
2022/04/03 06:04:39;;;;;;;7.30;3.37;;;;;;;3.99;74.02;99907.63;18364868;32;20112;-62
2022/04/03 06:14:44;;;;;;;6.95;4.10;;;;;;;4.16;73.59;99920.81;18366391;32;20133;-62
2022/04/03 06:24:47;;;;;;;7.15;3.45;;;;;;;4.02;73.39;99931.81;18360221;32;20094;-63
2022/04/03 06:34:52;;;;;;;6.18;2.95;;;;;;;4.19;73.49;99944.16;18354766;32;20077;-63
2022/04/03 06:44:55;;;;;;;7.15;3.67;;;;;;;4.95;69.09;99952.16;18362854;32;20093;-63
2022/04/03 06:55:00;;;;;;;6.55;3.65;;;;;;;4.98;69.12;99973.78;18361823;32;20108;-63
2022/04/03 07:05:04;;;;;;;8.20;3.70;;;;;;;4.63;70.73;99994.81;18359166;32;20215;-63
2022/04/03 07:15:12;;;;;;;5.68;3.05;;;;;;;4.73;72.18;100006.16;18355610;32;20104;-63
2022/04/03 07:25:15;;;;;;;9.48;5.82;;;;;;;4.52;73.06;100022.22;18368802;32;20107;-63
2022/04/03 07:35:21;;;;;;;8.48;3.47;;;;;;;4.97;71.72;100053.94;18369976;32;20124;-63
2022/04/03 07:45:24;;;;;;;11.48;5.03;;;;;;;5.08;70.43;100062.72;18367014;32;20132;-63
2022/04/03 07:55:29;;;;;;;9.15;4.40;;;;;;;5.35;71.16;100074.31;18369393;32;20108;-62
2022/04/03 08:05:34;;;;;;;9.38;4.18;;;;;;;5.71;71.07;100085.13;18367750;32;20707;-63
2022/04/03 08:15:39;;;;;;;14.30;6.82;;;;;;;5.87;68.40;100099.16;18362629;32;20101;-63
2022/04/03 08:25:44;;;;;;;14.55;7.20;;;;;;;5.55;68.01;100100.50;18366666;32;20175;-63
2022/04/03 08:35:51;;;;;;;15.60;8.38;;;;;;;6.45;67.67;100107.59;18332799;32;20112;-63
2022/04/03 08:45:54;;;;;;;15.75;8.18;;;;;;;7.47;61.34;100108.41;18303211;32;20143;-63
2022/04/03 08:56:00;;;;;;;14.55;8.35;;;;;;;7.59;63.63;100117.12;18305356;32;20112;-63
2022/04/03 09:06:16;;;;;;;12.98;6.90;;;;;;;8.01;63.08;100135.50;18286537;32;20124;-62
2022/04/03 09:16:38;;;;;;;15.02;7.68;;;;;;;8.09;57.41;100141.63;18300463;32;20088;-63
2022/04/03 09:26:42;;;;;;;13.07;7.20;;;;;;;7.81;58.62;100148.41;18299985;32;20124;-63
2022/04/03 09:36:57;;;;;;;14.73;7.37;;;;;;;9.55;53.41;100153.94;18300767;32;20115;-62
2022/04/03 09:47:19;;;;;;;13.38;7.22;;;;;;;10.52;49.74;100149.22;18301853;32;20630;-64
2022/04/03 09:57:24;;;;;;;13.52;6.65;;;;;;;11.53;47.28;100156.28;18307310;32;20102;-62
2022/04/03 10:07:28;;;;;;;14.00;7.25;;;;;;;10.29;48.16;100171.06;18357940;32;20105;-63
2022/04/03 10:17:32;;;;;;;11.70;6.47;;;;;;;11.36;44.18;100161.66;18356752;32;20116;-63
2022/04/03 10:27:44;;;;;;;15.88;6.80;;;;;;;11.33;42.34;100170.38;18363831;32;20099;-63
2022/04/03 10:38:00;;;;;;;13.25;6.62;;;;;;;10.31;45.37;100182.34;18364391;32;20127;-63
2022/04/03 10:48:26;;;;;;;13.60;7.25;;;;;;;9.41;47.12;100198.25;18356156;32;20374;-63
2022/04/03 10:58:47;;;;;;;15.07;6.57;;;;;;;9.40;46.78;100199.13;18349973;32;20089;-63
2022/04/03 11:08:59;;;;;;;13.25;6.57;;;;;;;8.83;48.94;100221.62;18360850;32;20089;-64
2022/04/03 11:19:05;;;;;;;11.63;5.85;;;;;;;9.23;47.54;100228.62;18307983;32;20073;-64
2022/04/03 11:29:09;;;;;;;12.45;6.18;;;;;;;9.41;46.83;100239.94;18358203;32;20089;-64
2022/04/03 11:39:14;;;;;;;10.35;5.10;;;;;;;9.39;46.96;100257.28;18361647;32;20116;-63
2022/04/03 11:49:28;;;;;;;12.80;5.73;;;;;;;9.65;44.49;100265.13;18366714;32;20103;-64
2022/04/03 11:59:35;;;;;;;11.50;6.12;;;;;;;9.42;45.39;100275.53;18353054;32;20088;-64
2022/04/03 12:09:40;;;;;;;10.60;5.60;;;;;;;9.21;44.73;100274.66;18347228;32;20093;-64
2022/04/03 12:19:47;;;;;;;12.90;5.75;;;;;;;9.41;44.02;100271.19;18360691;32;20137;-63
2022/04/03 12:29:51;;;;;;;13.80;4.95;;;;;;;10.37;43.17;100270.16;18350762;32;20180;-64
2022/04/03 12:40:06;;;;;;;13.00;6.05;;;;;;;11.35;40.23;100261.84;18347699;32;20578;-64
2022/04/03 12:50:15;;;;;;;10.38;5.12;;;;;;;11.36;40.26;100259.22;18366303;32;20438;-64
2022/04/03 13:00:21;;;;;;;10.23;5.28;;;;;;;11.15;39.00;100265.47;18365391;32;20086;-64
2022/04/03 13:10:25;;;;;;;10.55;5.32;;;;;;;10.85;39.62;100270.00;18365753;32;20101;-64
2022/04/03 13:20:30;;;;;;;12.07;6.00;;;;;;;11.35;39.33;100251.38;18366008;32;20105;-64
2022/04/03 13:30:34;;;;;;;11.02;5.43;;;;;;;10.60;36.86;100262.28;18364543;32;20138;-64
2022/04/03 13:40:40;;;;;;;10.88;5.37;;;;;;;10.73;38.19;100275.31;18367813;32;20449;-64
2022/04/03 13:50:43;;;;;;;11.80;5.22;;;;;;;9.57;39.38;100283.34;18363824;32;20449;-64
2022/04/03 14:00:48;;;;;;;11.38;5.45;;;;;;;9.39;37.89;100288.53;18364965;32;20366;-63
2022/04/03 14:10:53;;;;;;;10.27;4.90;;;;;;;9.86;37.52;100284.22;18360818;32;20101;-63
2022/04/03 14:20:59;;;;;;;11.20;5.25;;;;;;;9.36;38.30;100289.44;18355798;32;20162;-64
2022/04/03 14:31:03;;;;;;;12.90;5.72;;;;;;;8.97;40.80;100307.56;18369645;32;20105;-64
2022/04/03 14:41:09;;;;;;;13.23;5.55;;;;;;;9.09;39.80;100305.88;18370783;32;20112;-65
2022/04/03 14:51:12;;;;;;;10.73;5.70;;;;;;;8.62;40.49;100313.50;18365907;32;20093;-65
2022/04/03 15:01:17;;;;;;;12.98;4.87;;;;;;;8.59;40.34;100322.19;18365995;32;20125;-65
2022/04/03 15:11:20;;;;;;;11.50;5.80;;;;;;;8.86;40.84;100327.50;18367061;32;20089;-65
2022/04/03 15:21:25;;;;;;;12.02;5.85;;;;;;;9.15;40.20;100329.31;18369706;32;20151;-64
2022/04/03 15:31:28;;;;;;;8.82;4.50;;;;;;;8.37;39.46;100343.72;18368583;32;20161;-64
2022/04/03 15:41:33;;;;;;;12.75;7.20;;;;;;;8.73;39.51;100345.69;18368562;32;20094;-65
2022/04/03 15:51:36;;;;;;;11.43;5.22;;;;;;;8.13;40.42;100353.97;18366854;32;20114;-65
2022/04/03 16:01:41;;;;;;;13.27;6.95;;;;;;;7.86;40.37;100376.28;18368199;32;20089;-65
2022/04/03 16:11:45;;;;;;;13.40;5.72;;;;;;;8.09;40.01;100383.41;18368144;32;20085;-65
2022/04/03 16:21:49;;;;;;;9.80;5.75;;;;;;;7.84;40.18;100404.00;18368762;32;20180;-64
2022/04/03 16:31:55;;;;;;;13.55;7.45;;;;;;;7.39;39.83;100413.94;18368397;32;20438;-64
2022/04/03 16:41:59;;;;;;;11.57;4.70;;;;;;;7.33;40.45;100437.22;18363270;32;20096;-65
2022/04/03 16:52:04;;;;;;;11.12;5.47;;;;;;;6.96;41.41;100458.41;18368172;32;20081;-64
2022/04/03 17:02:09;;;;;;;10.07;5.10;;;;;;;6.60;40.67;100476.09;18368161;32;20149;-64
2022/04/03 17:12:12;;;;;;;11.10;5.30;;;;;;;6.16;41.36;100503.00;18368028;32;20113;-64
2022/04/03 17:22:18;;;;;;;10.60;5.03;;;;;;;6.34;40.74;100504.16;18367756;32;20085;-65
2022/04/03 17:32:22;;;;;;;11.43;4.75;;;;;;;5.90;41.40;100531.00;18366568;32;20410;-64
2022/04/03 17:42:29;;;;;;;8.77;4.85;;;;;;;5.83;41.87;100549.03;18366073;32;20394;-64
2022/04/03 17:52:33;;;;;;;9.23;4.15;;;;;;;5.47;42.52;100565.56;18365468;32;20089;-64
2022/04/03 18:02:37;;;;;;;8.27;4.45;;;;;;;5.55;42.73;100573.50;18364623;32;20189;-64
2022/04/03 18:12:41;;;;;;;5.82;3.55;;;;;;;5.35;42.93;100599.84;18354289;32;20453;-65
2022/04/03 18:22:46;;;;;;;9.45;4.03;;;;;;;5.07;42.50;100601.78;18348096;32;20089;-64
2022/04/03 18:32:49;;;;;;;13.05;7.57;;;;;;;5.01;43.69;100627.50;18345664;32;20097;-64
2022/04/03 18:42:56;;;;;;;8.80;4.07;;;;;;;5.16;43.84;100652.00;18357979;32;20093;-64
2022/04/03 18:53:00;;;;;;;9.48;5.55;;;;;;;4.96;43.19;100666.19;18363770;32;20433;-64
2022/04/03 19:03:04;;;;;;;9.02;4.12;;;;;;;4.88;43.04;100674.63;18363222;32;20366;-64
2022/04/03 19:13:08;;;;;;;6.68;4.03;;;;;;;4.89;42.05;100674.66;18365257;32;20429;-64
2022/04/03 19:23:13;;;;;;;7.90;4.10;;;;;;;4.76;43.28;100686.41;18371103;32;20123;-64
2022/04/03 19:33:16;;;;;;;8.13;3.87;;;;;;;4.77;42.32;100711.44;18371051;32;20110;-64
2022/04/03 19:43:22;;;;;;;7.15;3.90;;;;;;;4.57;42.69;100709.19;18371980;32;20093;-64
2022/04/03 19:53:26;;;;;;;8.55;4.65;;;;;;;4.70;42.74;100709.50;18371284;32;20096;-64
2022/04/03 20:03:35;;;;;;;8.25;3.58;;;;;;;4.54;43.04;100718.56;18370975;32;20093;-65
2022/04/03 20:13:59;;;;;;;7.47;3.35;;;;;;;4.37;42.03;100718.97;18370244;32;20155;-64
2022/04/03 20:24:23;;;;;;;4.75;2.62;;;;;;;4.55;41.85;100728.97;18370382;32;20097;-64
2022/04/03 20:34:42;;;;;;;5.95;3.20;;;;;;;4.42;41.84;100721.66;18368956;32;20097;-64
2022/04/03 20:44:47;;;;;;;6.07;2.85;;;;;;;4.50;42.04;100734.81;18368573;32;20093;-64
2022/04/03 20:54:51;;;;;;;4.07;2.47;;;;;;;4.25;42.26;100747.03;18368590;32;20097;-64
2022/04/03 21:04:56;;;;;;;7.37;3.28;;;;;;;4.28;42.71;100763.53;18368267;32;20476;-64
2022/04/03 21:15:01;;;;;;;8.68;3.92;;;;;;;4.36;42.78;100776.66;18367928;32;20081;-64
2022/04/03 21:25:07;;;;;;;7.43;3.17;;;;;;;4.46;42.98;100783.00;18368309;32;20454;-64
2022/04/03 21:35:11;;;;;;;7.05;2.65;;;;;;;4.12;42.53;100790.59;18366707;32;20150;-64
2022/04/03 21:45:15;;;;;;;4.85;2.87;;;;;;;4.26;41.92;100797.91;18368336;32;20108;-64
2022/04/03 21:55:18;;;;;;;5.22;2.50;;;;;;;4.12;42.66;100811.25;18359948;32;20137;-65
2022/04/03 22:05:23;;;;;;;12.77;5.22;;;;;;;4.07;42.52;100830.94;18367064;32;20092;-64
2022/04/03 22:15:26;;;;;;;10.35;3.40;;;;;;;4.18;41.44;100833.84;18365974;32;20179;-64
2022/04/03 22:25:31;;;;;;;7.37;3.33;;;;;;;3.93;42.15;100837.34;18356336;32;20093;-65
2022/04/03 22:35:35;;;;;;;6.22;2.70;;;;;;;3.95;41.60;100835.72;18365375;32;20093;-64
2022/04/03 22:45:39;;;;;;;5.53;3.10;;;;;;;3.92;42.22;100846.81;18365585;32;20097;-64
2022/04/03 22:55:43;;;;;;;2.80;1.95;;;;;;;4.01;41.80;100860.03;18372678;32;20149;-64
2022/04/03 23:05:47;;;;;;;9.68;3.78;;;;;;;4.17;41.20;100863.09;18372381;32;20101;-64
2022/04/03 23:15:50;;;;;;;4.45;2.47;;;;;;;3.84;44.53;100867.25;18372100;32;20434;-64
2022/04/03 23:25:55;;;;;;;4.32;2.30;;;;;;;3.46;44.51;100867.69;18371811;32;20097;-64
2022/04/03 23:36:00;;;;;;;4.78;2.75;;;;;;;3.44;45.14;100869.34;18371085;32;20144;-64
2022/04/03 23:46:05;;;;;;;4.85;2.20;;;;;;;2.82;48.18;100871.44;18371277;32;20093;-64
2022/04/03 23:56:08;;;;;;;6.25;2.12;;;;;;;2.38;50.52;100874.09;18370505;32;20103;-64
